Time,TemperatureF,DewpointF,PressureIn,WindDirection,WindDirectionDegrees,WindSpeedMPH,WindSpeedGustMPH,Humidity,HourlyPrecipIn,Conditions,Clouds,dailyrainin,SoftwareType,DateUTC
2013-05-06 00:01:00,41.4,37.5,30.25,SSE,149,0.0,0.0,86,0.00,,,0.00,Wunderground v.1.15,2013-05-06 04:01:00,
2013-05-06 00:03:00,41.3,37.4,30.24,SSE,150,0.0,0.0,86,0.00,,,0.00,Wunderground v.1.15,2013-05-06 04:03:00,
2013-05-06 00:05:00,41.2,37.3,30.25,SSE,149,0.0,0.0,86,0.00,,,0.00,Wunderground v.1.15,2013-05-06 04:05:00,
2013-05-06 00:08:00,41.1,37.2,30.25,SSE,150,0.0,0.0,86,0.00,,,0.00,Wunderground v.1.15,2013-05-06 04:08:00,
2013-05-06 00:15:00,40.9,37.3,30.25,SSE,150,0.0,0.0,87,0.00,,,0.00,Wunderground v.1.15,2013-05-06 04:15:00,
2013-05-06 00:20:00,40.7,37.1,30.24,SSE,149,0.0,0.0,87,0.00,,,0.00,Wunderground v.1.15,2013-05-06 04:20:00,
2013-05-06 00:25:00,40.5,36.9,30.24,SSE,150,0.0,0.0,87,0.00,,,0.00,Wunderground v.1.15,2013-05-06 04:25:00,
2013-05-06 00:30:00,40.3,36.7,30.24,SSE,149,0.0,0.0,87,0.00,,,0.00,Wunderground v.1.15,2013-05-06 04:30:00,
2013-05-06 00:35:00,40.1,36.5,30.24,SSE,149,0.0,0.0,87,0.00,,,0.00,Wunderground v.1.15,2013-05-06 04:35:00,
2013-05-06 00:41:00,39.9,36.3,30.24,SSE,150,0.0,0.0,87,0.00,,,0.00,Wunderground v.1.15,2013-05-06 04:41:00,
2013-05-06 00:47:00,39.7,36.4,30.24,SSE,149,0.0,0.0,88,0.00,,,0.00,Wunderground v.1.15,2013-05-06 04:47:00,
2013-05-06 00:52:00,39.5,36.2,30.24,SSE,149,0.0,0.0,88,0.00,,,0.00,Wunderground v.1.15,2013-05-06 04:52:00,
2013-05-06 00:58:00,39.4,36.1,30.24,SSE,149,0.0,0.0,88,0.00,,,0.00,Wunderground v.1.15,2013-05-06 04:58:00,
2013-05-06 01:05:00,39.2,35.9,30.24,SSE,149,0.0,0.0,88,0.00,,,0.00,Wunderground v.1.15,2013-05-06 05:05:00,
2013-05-06 01:11:00,39.0,35.7,30.24,SSE,149,0.0,0.0,88,0.00,,,0.00,Wunderground v.1.15,2013-05-06 05:11:00,
2013-05-06 01:16:00,38.8,35.6,30.24,SSE,149,0.0,0.0,88,0.00,,,0.00,Wunderground v.1.15,2013-05-06 05:16:00,
2013-05-06 01:22:00,38.6,35.4,30.24,SSE,150,0.0,0.0,88,0.00,,,0.00,Wunderground v.1.15,2013-05-06 05:22:00,
2013-05-06 01:27:00,38.5,35.3,30.24,SSE,150,0.0,0.0,88,0.00,,,0.00,Wunderground v.1.15,2013-05-06 05:27:00,
2013-05-06 01:33:00,38.3,35.1,30.24,SSE,150,0.0,0.0,88,0.00,,,0.00,Wunderground v.1.15,2013-05-06 05:33:00,
2013-05-06 01:40:00,38.1,34.9,30.24,SSE,150,0.0,0.0,88,0.00,,,0.00,Wunderground v.1.15,2013-05-06 05:40:00,
2013-05-06 01:45:00,38.0,34.8,30.23,SSE,150,0.0,0.0,88,0.00,,,0.00,Wunderground v.1.15,2013-05-06 05:45:00,
2013-05-06 01:51:00,38.0,34.8,30.23,SSE,150,0.0,0.0,88,0.00,,,0.00,Wunderground v.1.15,2013-05-06 05:51:00,
2013-05-06 01:57:00,38.0,35.0,30.23,SSE,150,0.0,0.0,89,0.00,,,0.00,Wunderground v.1.15,2013-05-06 05:57:00,
2013-05-06 02:03:00,38.0,35.0,30.23,SSE,149,0.0,0.0,89,0.00,,,0.00,Wunderground v.1.15,2013-05-06 06:03:00,
2013-05-06 02:10:00,38.1,34.9,30.23,SSE,149,0.0,0.0,88,0.00,,,0.00,Wunderground v.1.15,2013-05-06 06:10:00,
2013-05-06 02:16:00,38.3,35.1,30.23,SSE,149,0.0,1.0,88,0.00,,,0.00,Wunderground v.1.15,2013-05-06 06:16:00,
2013-05-06 02:21:00,38.4,35.4,30.23,SSE,150,0.0,1.0,89,0.00,,,0.00,Wunderground v.1.15,2013-05-06 06:21:00,
2013-05-06 02:27:00,38.7,35.7,30.23,SSE,150,0.0,1.0,89,0.00,,,0.00,Wunderground v.1.15,2013-05-06 06:27:00,
2013-05-06 02:33:00,38.9,35.9,30.23,SSE,150,0.0,0.0,89,0.00,,,0.00,Wunderground v.1.15,2013-05-06 06:33:00,
2013-05-06 02:38:00,39.1,36.1,30.23,SSE,149,0.0,0.0,89,0.00,,,0.00,Wunderground v.1.15,2013-05-06 06:38:00,
2013-05-06 02:45:00,39.1,36.1,30.23,SSE,150,0.0,0.0,89,0.00,,,0.00,Wunderground v.1.15,2013-05-06 06:45:00,
2013-05-06 02:51:00,39.1,36.1,30.23,SSE,150,0.0,0.0,89,0.00,,,0.00,Wunderground v.1.15,2013-05-06 06:51:00,
2013-05-06 02:56:00,39.0,36.0,30.23,SSE,149,0.0,0.0,89,0.00,,,0.00,Wunderground v.1.15,2013-05-06 06:56:00,
2013-05-06 03:02:00,38.8,35.8,30.23,SSE,150,0.0,0.0,89,0.00,,,0.00,Wunderground v.1.15,2013-05-06 07:02:00,
2013-05-06 03:07:00,38.7,35.7,30.23,SSE,150,0.0,0.0,89,0.00,,,0.00,Wunderground v.1.15,2013-05-06 07:07:00,
2013-05-06 03:13:00,38.6,35.6,30.23,SSE,149,0.0,0.0,89,0.00,,,0.00,Wunderground v.1.15,2013-05-06 07:13:00,
2013-05-06 03:20:00,38.4,35.4,30.23,SSE,149,0.0,0.0,89,0.00,,,0.00,Wunderground v.1.15,2013-05-06 07:20:00,
2013-05-06 03:25:00,38.3,35.3,30.23,SSE,150,0.0,0.0,89,0.00,,,0.00,Wunderground v.1.15,2013-05-06 07:25:00,
2013-05-06 03:31:00,38.2,35.2,30.22,SSE,150,0.0,0.0,89,0.00,,,0.00,Wunderground v.1.15,2013-05-06 07:31:00,
2013-05-06 03:37:00,38.0,35.0,30.22,SSE,150,0.0,0.0,89,0.00,,,0.00,Wunderground v.1.15,2013-05-06 07:37:00,
2013-05-06 03:43:00,37.9,34.9,30.22,SSE,149,0.0,0.0,89,0.00,,,0.00,Wunderground v.1.15,2013-05-06 07:43:00,
2013-05-06 03:50:00,37.9,34.9,30.22,SSE,149,0.0,0.0,89,0.00,,,0.00,Wunderground v.1.15,2013-05-06 07:50:00,
2013-05-06 03:55:00,37.8,34.8,30.22,SSE,149,0.0,0.0,89,0.00,,,0.00,Wunderground v.1.15,2013-05-06 07:55:00,
2013-05-06 04:01:00,37.6,34.7,30.22,SSE,149,0.0,1.0,89,0.00,,,0.00,Wunderground v.1.15,2013-05-06 08:01:00,
2013-05-06 04:07:00,37.4,34.5,30.23,SSE,150,0.0,1.0,89,0.00,,,0.00,Wunderground v.1.15,2013-05-06 08:07:00,
2013-05-06 04:13:00,37.2,34.3,30.23,SSE,149,0.0,0.0,89,0.00,,,0.00,Wunderground v.1.15,2013-05-06 08:13:00,
2013-05-06 04:20:00,36.9,34.0,30.23,SSE,149,0.0,0.0,89,0.00,,,0.00,Wunderground v.1.15,2013-05-06 08:20:00,
2013-05-06 04:26:00,36.7,33.8,30.23,SSE,149,0.0,0.0,89,0.00,,,0.00,Wunderground v.1.15,2013-05-06 08:26:00,
2013-05-06 04:31:00,36.5,33.6,30.23,SSE,150,0.0,0.0,89,0.00,,,0.00,Wunderground v.1.15,2013-05-06 08:31:00,
2013-05-06 04:36:00,36.4,33.5,30.23,SSE,149,0.0,0.0,89,0.00,,,0.00,Wunderground v.1.15,2013-05-06 08:36:00,
2013-05-06 04:42:00,36.2,33.3,30.23,SSE,149,0.0,0.0,89,0.00,,,0.00,Wunderground v.1.15,2013-05-06 08:42:00,
2013-05-06 04:48:00,36.0,33.1,30.22,SSE,150,0.0,0.0,89,0.00,,,0.00,Wunderground v.1.15,2013-05-06 08:48:00,
2013-05-06 04:53:00,35.9,33.0,30.22,SSE,150,0.0,0.0,89,0.00,,,0.00,Wunderground v.1.15,2013-05-06 08:53:00,
2013-05-06 04:58:00,35.7,32.8,30.23,SSE,150,0.0,1.0,89,0.00,,,0.00,Wunderground v.1.15,2013-05-06 08:58:00,
2013-05-06 05:05:00,35.4,32.5,30.23,SSE,149,0.0,0.0,89,0.00,,,0.00,Wunderground v.1.15,2013-05-06 09:05:00,
2013-05-06 05:11:00,35.3,32.4,30.23,SSE,150,0.0,0.0,89,0.00,,,0.00,Wunderground v.1.15,2013-05-06 09:11:00,
2013-05-06 05:17:00,35.1,32.2,30.22,SSE,150,0.0,0.0,89,0.00,,,0.00,Wunderground v.1.15,2013-05-06 09:17:00,
2013-05-06 05:22:00,35.0,32.1,30.22,SSE,150,0.0,0.0,89,0.00,,,0.00,Wunderground v.1.15,2013-05-06 09:22:00,
2013-05-06 05:28:00,34.8,31.9,30.22,SSE,149,0.0,0.0,89,0.00,,,0.00,Wunderground v.1.15,2013-05-06 09:28:00,
2013-05-06 05:35:00,34.6,31.7,30.23,SSE,149,0.0,1.0,89,0.00,,,0.00,Wunderground v.1.15,2013-05-06 09:35:00,
2013-05-06 05:41:00,34.4,31.5,30.23,SSE,149,0.0,0.0,89,0.00,,,0.00,Wunderground v.1.15,2013-05-06 09:41:00,
2013-05-06 05:47:00,34.4,31.5,30.23,SSE,150,0.0,0.0,89,0.00,,,0.00,Wunderground v.1.15,2013-05-06 09:47:00,
2013-05-06 05:53:00,34.4,31.5,30.24,SSE,149,0.0,0.0,89,0.00,,,0.00,Wunderground v.1.15,2013-05-06 09:53:00,
2013-05-06 06:00:00,34.4,31.5,30.24,SSE,150,0.0,1.0,89,0.00,,,0.00,Wunderground v.1.15,2013-05-06 10:00:00,
2013-05-06 06:05:00,34.4,31.5,30.24,SSE,150,0.0,1.0,89,0.00,,,0.00,Wunderground v.1.15,2013-05-06 10:05:00,
2013-05-06 06:11:00,34.3,31.4,30.24,SSE,150,0.0,1.0,89,0.00,,,0.00,Wunderground v.1.15,2013-05-06 10:11:00,
2013-05-06 06:17:00,34.2,31.3,30.24,SSE,149,0.0,1.0,89,0.00,,,0.00,Wunderground v.1.15,2013-05-06 10:17:00,
2013-05-06 06:22:00,34.3,31.4,30.24,SSE,150,0.0,0.0,89,0.00,,,0.00,Wunderground v.1.15,2013-05-06 10:22:00,
2013-05-06 06:28:00,34.4,31.5,30.25,SSE,150,0.0,0.0,89,0.00,,,0.00,Wunderground v.1.15,2013-05-06 10:28:00,
2013-05-06 06:35:00,34.7,31.8,30.25,SSE,150,0.0,0.0,89,0.00,,,0.00,Wunderground v.1.15,2013-05-06 10:35:00,
2013-05-06 06:40:00,34.9,32.0,30.25,SSE,150,0.0,1.0,89,0.00,,,0.00,Wunderground v.1.15,2013-05-06 10:40:00,
2013-05-06 06:45:00,35.2,32.3,30.25,SSE,150,1.0,1.0,89,0.00,,,0.00,Wunderground v.1.15,2013-05-06 10:45:00,
2013-05-06 06:51:00,36.0,33.1,30.25,SSE,150,0.0,1.0,89,0.00,,,0.00,Wunderground v.1.15,2013-05-06 10:51:00,
2013-05-06 06:56:00,36.7,33.8,30.25,SSE,150,0.0,1.0,89,0.00,,,0.00,Wunderground v.1.15,2013-05-06 10:56:00,
2013-05-06 07:02:00,37.7,35.0,30.25,SSE,149,0.0,0.0,90,0.00,,,0.00,Wunderground v.1.15,2013-05-06 11:02:00,
2013-05-06 07:07:00,38.5,35.5,30.25,SSE,149,0.0,1.0,89,0.00,,,0.00,Wunderground v.1.15,2013-05-06 11:07:00,
2013-05-06 07:12:00,39.2,36.5,30.25,SE,146,0.0,2.0,90,0.00,,,0.00,Wunderground v.1.15,2013-05-06 11:12:00,
2013-05-06 07:17:00,40.0,37.3,30.25,SE,146,0.0,2.0,90,0.00,,,0.00,Wunderground v.1.15,2013-05-06 11:17:00,
2013-05-06 07:23:00,40.8,38.1,30.25,SE,128,0.0,3.0,90,0.00,,,0.00,Wunderground v.1.15,2013-05-06 11:23:00,
2013-05-06 07:28:00,41.8,39.1,30.25,SSE,148,1.0,3.0,90,0.00,,,0.00,Wunderground v.1.15,2013-05-06 11:28:00,
2013-05-06 07:35:00,42.7,40.0,30.26,SSE,150,1.0,2.0,90,0.00,,,0.00,Wunderground v.1.15,2013-05-06 11:35:00,
2013-05-06 07:40:00,43.5,40.8,30.26,SE,143,1.0,3.0,90,0.00,,,0.00,Wunderground v.1.15,2013-05-06 11:40:00,
2013-05-06 07:46:00,43.9,41.2,30.26,SSE,160,3.0,4.0,90,0.00,,,0.00,Wunderground v.1.15,2013-05-06 11:46:00,
2013-05-06 07:51:00,44.2,41.5,30.26,SE,141,3.0,4.0,90,0.00,,,0.00,Wunderground v.1.15,2013-05-06 11:51:00,
2013-05-06 07:57:00,45.0,42.2,30.26,South,191,3.0,4.0,90,0.00,,,0.00,Wunderground v.1.15,2013-05-06 11:57:00,
2013-05-06 08:02:00,45.6,42.8,30.26,SW,225,3.0,3.0,90,0.00,,,0.00,Wunderground v.1.15,2013-05-06 12:02:00,
2013-05-06 08:08:00,46.0,43.2,30.25,SSW,198,2.0,3.0,90,0.00,,,0.00,Wunderground v.1.15,2013-05-06 12:08:00,
2013-05-06 08:13:00,46.2,43.1,30.26,SW,226,1.0,2.0,89,0.00,,,0.00,Wunderground v.1.15,2013-05-06 12:13:00,
2013-05-06 08:20:00,46.3,42.9,30.26,SSW,211,2.0,3.0,88,0.00,,,0.00,Wunderground v.1.15,2013-05-06 12:20:00,
2013-05-06 08:26:00,46.5,42.8,30.26,SSW,199,2.0,3.0,87,0.00,,,0.00,Wunderground v.1.15,2013-05-06 12:26:00,
2013-05-06 08:32:00,46.9,43.2,30.26,South,179,2.0,3.0,87,0.00,,,0.00,Wunderground v.1.15,2013-05-06 12:32:00,
2013-05-06 08:37:00,47.6,43.6,30.26,SSE,157,2.0,3.0,86,0.00,,,0.00,Wunderground v.1.15,2013-05-06 12:37:00,
2013-05-06 08:43:00,48.3,44.0,30.26,SE,137,2.0,3.0,85,0.00,,,0.00,Wunderground v.1.15,2013-05-06 12:43:00,
2013-05-06 08:50:00,49.1,44.2,30.26,SSW,205,2.0,2.0,83,0.00,,,0.00,Wunderground v.1.15,2013-05-06 12:50:00,
2013-05-06 08:56:00,49.4,44.1,30.26,South,186,2.0,4.0,82,0.00,,,0.00,Wunderground v.1.15,2013-05-06 12:56:00,
2013-05-06 09:03:00,49.6,44.0,30.26,SE,131,2.0,2.0,81,0.00,,,0.00,Wunderground v.1.15,2013-05-06 13:03:00,
2013-05-06 09:08:00,49.9,44.3,30.26,SW,215,2.0,5.0,81,0.00,,,0.00,Wunderground v.1.15,2013-05-06 13:08:00,
2013-05-06 09:15:00,50.2,44.3,30.26,SSW,209,3.0,3.0,80,0.00,,,0.00,Wunderground v.1.15,2013-05-06 13:15:00,
2013-05-06 09:20:00,50.4,44.5,30.26,SSW,202,2.0,2.0,80,0.00,,,0.00,Wunderground v.1.15,2013-05-06 13:20:00,
2013-05-06 09:25:00,50.9,44.6,30.26,SSW,196,3.0,4.0,79,0.00,,,0.00,Wunderground v.1.15,2013-05-06 13:25:00,
2013-05-06 09:31:00,51.3,44.3,30.26,South,190,4.0,4.0,77,0.00,,,0.00,Wunderground v.1.15,2013-05-06 13:31:00,
2013-05-06 09:37:00,51.8,45.2,30.26,West,263,3.0,6.0,78,0.00,,,0.00,Wunderground v.1.15,2013-05-06 13:37:00,
2013-05-06 09:43:00,52.2,44.9,30.26,SSW,200,2.0,3.0,76,0.00,,,0.00,Wunderground v.1.15,2013-05-06 13:43:00,
2013-05-06 09:48:00,52.8,45.1,30.26,NE,44,2.0,5.0,75,0.00,,,0.00,Wunderground v.1.15,2013-05-06 13:48:00,
2013-05-06 09:55:00,53.4,45.0,30.26,SE,140,3.0,3.0,73,0.00,,,0.00,Wunderground v.1.15,2013-05-06 13:55:00,
2013-05-06 10:00:00,53.9,44.7,30.26,ESE,123,2.0,2.0,71,0.00,,,0.00,Wunderground v.1.15,2013-05-06 14:00:00,
2013-05-06 10:05:00,54.7,45.8,30.26,SSE,159,2.0,3.0,72,0.00,,,0.00,Wunderground v.1.15,2013-05-06 14:05:00,
2013-05-06 10:11:00,55.7,45.7,30.26,SE,142,2.0,3.0,69,0.00,,,0.00,Wunderground v.1.15,2013-05-06 14:11:00,
2013-05-06 10:17:00,56.6,46.2,30.26,East,80,1.0,3.0,68,0.00,,,0.00,Wunderground v.1.15,2013-05-06 14:17:00,
2013-05-06 10:22:00,56.9,45.7,30.26,SSW,206,2.0,4.0,66,0.00,,,0.00,Wunderground v.1.15,2013-05-06 14:22:00,
2013-05-06 10:28:00,57.1,46.2,30.25,NE,56,2.0,4.0,67,0.00,,,0.00,Wunderground v.1.15,2013-05-06 14:28:00,
2013-05-06 10:33:00,57.5,46.2,30.25,SE,132,2.0,5.0,66,0.00,,,0.00,Wunderground v.1.15,2013-05-06 14:33:00,
2013-05-06 10:40:00,58.5,46.8,30.26,South,169,2.0,2.0,65,0.00,,,0.00,Wunderground v.1.15,2013-05-06 14:40:00,
2013-05-06 10:46:00,59.1,45.2,30.25,WNW,299,2.0,3.0,60,0.00,,,0.00,Wunderground v.1.15,2013-05-06 14:46:00,
2013-05-06 10:51:00,59.5,46.5,30.25,SSE,163,2.0,2.0,62,0.00,,,0.00,Wunderground v.1.15,2013-05-06 14:51:00,
2013-05-06 10:57:00,60.2,46.3,30.25,ENE,65,2.0,3.0,60,0.00,,,0.00,Wunderground v.1.15,2013-05-06 14:57:00,
2013-05-06 11:03:00,60.7,46.3,30.25,SW,214,2.0,5.0,59,0.00,,,0.00,Wunderground v.1.15,2013-05-06 15:03:00,
2013-05-06 11:08:00,61.1,45.7,30.25,NNW,337,3.0,5.0,57,0.00,,,0.00,Wunderground v.1.15,2013-05-06 15:08:00,
2013-05-06 11:15:00,61.4,46.0,30.24,WNW,290,2.0,4.0,57,0.00,,,0.00,Wunderground v.1.15,2013-05-06 15:15:00,
2013-05-06 11:20:00,61.3,45.9,30.24,NW,323,2.0,2.0,57,0.00,,,0.00,Wunderground v.1.15,2013-05-06 15:20:00,
2013-05-06 11:25:00,61.2,46.8,30.24,South,176,2.0,2.0,59,0.00,,,0.00,Wunderground v.1.15,2013-05-06 15:25:00,
2013-05-06 11:30:00,61.3,46.8,30.23,SSE,158,1.0,1.0,59,0.00,,,0.00,Wunderground v.1.15,2013-05-06 15:30:00,
2013-05-06 11:36:00,62.6,47.1,30.23,SSW,207,2.0,4.0,57,0.00,,,0.00,Wunderground v.1.15,2013-05-06 15:36:00,
2013-05-06 11:42:00,64.3,47.3,30.23,WSW,250,2.0,3.0,54,0.00,,,0.00,Wunderground v.1.15,2013-05-06 15:42:00,
2013-05-06 11:47:00,65.1,47.5,30.23,South,176,2.0,3.0,53,0.00,,,0.00,Wunderground v.1.15,2013-05-06 15:47:00,
2013-05-06 11:52:00,65.4,47.8,30.23,ESE,103,2.0,2.0,53,0.00,,,0.00,Wunderground v.1.15,2013-05-06 15:52:00,
2013-05-06 11:58:00,65.7,49.1,30.22,NE,36,2.0,2.0,55,0.00,,,0.00,Wunderground v.1.15,2013-05-06 15:58:00,
2013-05-06 12:03:00,66.2,48.6,30.22,ENE,67,2.0,3.0,53,0.00,,,0.00,Wunderground v.1.15,2013-05-06 16:03:00,
2013-05-06 12:10:00,66.8,48.1,30.21,NW,317,2.0,2.0,51,0.00,,,0.00,Wunderground v.1.15,2013-05-06 16:10:00,
2013-05-06 12:15:00,66.2,48.0,30.21,WSW,240,2.0,3.0,52,0.00,,,0.00,Wunderground v.1.15,2013-05-06 16:15:00,
2013-05-06 12:21:00,66.8,48.6,30.21,South,181,2.0,2.0,52,0.00,,,0.00,Wunderground v.1.15,2013-05-06 16:21:00,
2013-05-06 12:27:00,67.8,49.5,30.21,SSE,168,2.0,4.0,52,0.00,,,0.00,Wunderground v.1.15,2013-05-06 16:27:00,
2013-05-06 12:33:00,68.5,48.6,30.20,SSW,206,2.0,4.0,49,0.00,,,0.00,Wunderground v.1.15,2013-05-06 16:33:00,
2013-05-06 12:40:00,67.9,47.5,30.20,ENE,78,3.0,3.0,48,0.00,,,0.00,Wunderground v.1.15,2013-05-06 16:40:00,
2013-05-06 12:45:00,67.0,48.8,30.20,SE,134,2.0,4.0,52,0.00,,,0.00,Wunderground v.1.15,2013-05-06 16:45:00,
2013-05-06 12:50:00,67.7,49.9,30.19,WSW,248,2.0,4.0,53,0.00,,,0.00,Wunderground v.1.15,2013-05-06 16:50:00,
2013-05-06 12:56:00,69.4,49.4,30.19,NW,306,2.0,4.0,49,0.00,,,0.00,Wunderground v.1.15,2013-05-06 16:56:00,
2013-05-06 13:02:00,70.1,50.0,30.19,WSW,246,2.0,2.0,49,0.00,,,0.00,Wunderground v.1.15,2013-05-06 17:02:00,
2013-05-06 13:08:00,71.0,49.7,30.18,South,173,2.0,4.0,47,0.00,,,0.00,Wunderground v.1.15,2013-05-06 17:08:00,
2013-05-06 13:13:00,70.5,49.9,30.18,WNW,291,2.0,4.0,48,0.00,,,0.00,Wunderground v.1.15,2013-05-06 17:13:00,
2013-05-06 13:20:00,70.8,49.6,30.18,NNW,337,3.0,3.0,47,0.00,,,0.00,Wunderground v.1.15,2013-05-06 17:20:00,
2013-05-06 13:26:00,70.6,50.0,30.18,South,182,3.0,4.0,48,0.00,,,0.00,Wunderground v.1.15,2013-05-06 17:26:00,
2013-05-06 13:31:00,71.1,51.0,30.18,SE,132,3.0,4.0,49,0.00,,,0.00,Wunderground v.1.15,2013-05-06 17:31:00,
2013-05-06 13:36:00,71.7,49.8,30.17,WSW,240,3.0,4.0,46,0.00,,,0.00,Wunderground v.1.15,2013-05-06 17:36:00,
2013-05-06 13:42:00,72.7,51.3,30.17,North,11,2.0,3.0,47,0.00,,,0.00,Wunderground v.1.15,2013-05-06 17:42:00,
2013-05-06 13:47:00,73.3,53.0,30.17,South,169,2.0,4.0,49,0.00,,,0.00,Wunderground v.1.15,2013-05-06 17:47:00,
2013-05-06 13:53:00,73.8,51.1,30.17,ESE,104,2.0,3.0,45,0.00,,,0.00,Wunderground v.1.15,2013-05-06 17:53:00,
2013-05-06 13:58:00,73.8,51.1,30.17,NE,53,2.0,3.0,45,0.00,,,0.00,Wunderground v.1.15,2013-05-06 17:58:00,
2013-05-06 14:05:00,73.6,49.7,30.17,North,11,2.0,3.0,43,0.00,,,0.00,Wunderground v.1.15,2013-05-06 18:05:00,
2013-05-06 14:11:00,73.5,49.6,30.17,SSW,200,4.0,5.0,43,0.00,,,0.00,Wunderground v.1.15,2013-05-06 18:11:00,
2013-05-06 14:16:00,74.0,51.3,30.16,South,178,5.0,7.0,45,0.00,,,0.00,Wunderground v.1.15,2013-05-06 18:16:00,
2013-05-06 14:21:00,74.2,50.3,30.16,SW,217,5.0,5.0,43,0.00,,,0.00,Wunderground v.1.15,2013-05-06 18:21:00,
2013-05-06 14:27:00,74.5,50.5,30.16,WSW,256,4.0,5.0,43,0.00,,,0.00,Wunderground v.1.15,2013-05-06 18:27:00,
2013-05-06 14:32:00,75.1,51.7,30.16,South,189,2.0,2.0,44,0.00,,,0.00,Wunderground v.1.15,2013-05-06 18:32:00,
2013-05-06 14:38:00,76.4,51.0,30.16,SSW,207,1.0,2.0,41,0.00,,,0.00,Wunderground v.1.15,2013-05-06 18:38:00,
2013-05-06 14:45:00,77.0,50.1,30.16,West,263,3.0,6.0,39,0.00,,,0.00,Wunderground v.1.15,2013-05-06 18:45:00,
2013-05-06 14:50:00,76.6,49.8,30.15,South,180,4.0,4.0,39,0.00,,,0.00,Wunderground v.1.15,2013-05-06 18:50:00,
2013-05-06 14:56:00,76.6,50.5,30.15,SW,218,3.0,8.0,40,0.00,,,0.00,Wunderground v.1.15,2013-05-06 18:56:00,
2013-05-06 15:02:00,77.1,50.9,30.14,SSW,207,3.0,4.0,40,0.00,,,0.00,Wunderground v.1.15,2013-05-06 19:02:00,
2013-05-06 15:07:00,77.1,50.9,30.14,WSW,240,3.0,5.0,40,0.00,,,0.00,Wunderground v.1.15,2013-05-06 19:07:00,
2013-05-06 15:13:00,77.1,51.6,30.14,SE,146,4.0,4.0,41,0.00,,,0.00,Wunderground v.1.15,2013-05-06 19:13:00,
2013-05-06 15:18:00,76.8,50.6,30.14,SE,132,3.0,4.0,40,0.00,,,0.00,Wunderground v.1.15,2013-05-06 19:18:00,
2013-05-06 15:23:00,75.8,50.4,30.14,WSW,252,3.0,7.0,41,0.00,,,0.00,Wunderground v.1.15,2013-05-06 19:23:00,
2013-05-06 15:30:00,76.4,51.0,30.13,WNW,302,3.0,4.0,41,0.00,,,0.00,Wunderground v.1.15,2013-05-06 19:30:00,
2013-05-06 15:35:00,76.7,52.5,30.13,South,184,3.0,5.0,43,0.00,,,0.00,Wunderground v.1.15,2013-05-06 19:35:00,
2013-05-06 15:41:00,76.7,50.6,30.13,NE,45,2.0,2.0,40,0.00,,,0.00,Wunderground v.1.15,2013-05-06 19:41:00,
2013-05-06 15:47:00,76.3,50.2,30.13,WSW,237,3.0,4.0,40,0.00,,,0.00,Wunderground v.1.15,2013-05-06 19:47:00,
2013-05-06 15:52:00,76.0,49.9,30.13,WSW,238,4.0,8.0,40,0.00,,,0.00,Wunderground v.1.15,2013-05-06 19:52:00,
2013-05-06 15:58:00,75.7,49.7,30.12,West,260,4.0,8.0,40,0.00,,,0.00,Wunderground v.1.15,2013-05-06 19:58:00,
2013-05-06 16:03:00,75.2,49.2,30.12,North,355,2.0,3.0,40,0.00,,,0.00,Wunderground v.1.15,2013-05-06 20:03:00,
2013-05-06 16:10:00,75.5,50.1,30.12,SW,225,2.0,4.0,41,0.00,,,0.00,Wunderground v.1.15,2013-05-06 20:10:00,
2013-05-06 16:16:00,75.5,52.1,30.12,South,191,2.0,5.0,44,0.00,,,0.00,Wunderground v.1.15,2013-05-06 20:16:00,
2013-05-06 16:22:00,76.1,51.3,30.12,SE,144,4.0,6.0,42,0.00,,,0.00,Wunderground v.1.15,2013-05-06 20:22:00,
2013-05-06 16:28:00,75.9,51.8,30.11,ENE,74,4.0,6.0,43,0.00,,,0.00,Wunderground v.1.15,2013-05-06 20:28:00,
2013-05-06 16:35:00,75.4,51.3,30.11,South,171,2.0,3.0,43,0.00,,,0.00,Wunderground v.1.15,2013-05-06 20:35:00,
2013-05-06 16:41:00,75.9,51.8,30.11,East,91,3.0,3.0,43,0.00,,,0.00,Wunderground v.1.15,2013-05-06 20:41:00,
2013-05-06 16:47:00,75.4,52.0,30.11,SW,215,3.0,7.0,44,0.00,,,0.00,Wunderground v.1.15,2013-05-06 20:47:00,
2013-05-06 16:53:00,74.7,51.3,30.11,SE,146,3.0,3.0,44,0.00,,,0.00,Wunderground v.1.15,2013-05-06 20:53:00,
2013-05-06 17:00:00,74.6,51.9,30.11,SSE,167,3.0,3.0,45,0.00,,,0.00,Wunderground v.1.15,2013-05-06 21:00:00,
2013-05-06 17:05:00,74.3,51.6,30.11,SW,219,3.0,7.0,45,0.00,,,0.00,Wunderground v.1.15,2013-05-06 21:05:00,
2013-05-06 17:11:00,73.9,51.8,30.12,South,175,4.0,7.0,46,0.00,,,0.00,Wunderground v.1.15,2013-05-06 21:11:00,
2013-05-06 17:17:00,73.6,52.1,30.11,SW,222,4.0,7.0,47,0.00,,,0.00,Wunderground v.1.15,2013-05-06 21:17:00,
2013-05-06 17:22:00,73.5,52.6,30.11,South,186,4.0,4.0,48,0.00,,,0.00,Wunderground v.1.15,2013-05-06 21:22:00,
2013-05-06 17:28:00,73.5,52.0,30.11,SW,226,3.0,4.0,47,0.00,,,0.00,Wunderground v.1.15,2013-05-06 21:28:00,
2013-05-06 17:33:00,73.2,52.9,30.11,SSE,155,3.0,4.0,49,0.00,,,0.00,Wunderground v.1.15,2013-05-06 21:33:00,
2013-05-06 17:40:00,73.2,52.9,30.12,East,90,3.0,3.0,49,0.00,,,0.00,Wunderground v.1.15,2013-05-06 21:40:00,
2013-05-06 17:45:00,72.5,52.8,30.12,SSE,155,3.0,6.0,50,0.00,,,0.00,Wunderground v.1.15,2013-05-06 21:45:00,
2013-05-06 17:50:00,71.8,52.7,30.11,ENE,78,3.0,3.0,51,0.00,,,0.00,Wunderground v.1.15,2013-05-06 21:50:00,
2013-05-06 17:56:00,71.2,52.7,30.11,South,180,4.0,5.0,52,0.00,,,0.00,Wunderground v.1.15,2013-05-06 21:56:00,
2013-05-06 18:01:00,71.0,53.0,30.12,SSW,210,3.0,5.0,53,0.00,,,0.00,Wunderground v.1.15,2013-05-06 22:01:00,
2013-05-06 18:06:00,70.9,52.9,30.11,SW,227,3.0,5.0,53,0.00,,,0.00,Wunderground v.1.15,2013-05-06 22:06:00,
2013-05-06 18:11:00,70.5,52.5,30.11,SSE,152,3.0,4.0,53,0.00,,,0.00,Wunderground v.1.15,2013-05-06 22:11:00,
2013-05-06 18:16:00,70.3,52.9,30.11,SE,133,3.0,4.0,54,0.00,,,0.00,Wunderground v.1.15,2013-05-06 22:16:00,
2013-05-06 18:22:00,70.0,53.6,30.11,SSE,168,3.0,5.0,56,0.00,,,0.00,Wunderground v.1.15,2013-05-06 22:22:00,
2013-05-06 18:28:00,69.7,54.3,30.11,South,178,3.0,7.0,58,0.00,,,0.00,Wunderground v.1.15,2013-05-06 22:28:00,
2013-05-06 18:35:00,69.0,52.6,30.12,South,180,3.0,6.0,56,0.00,,,0.00,Wunderground v.1.15,2013-05-06 22:35:00,
2013-05-06 18:40:00,68.3,52.5,30.11,South,180,3.0,4.0,57,0.00,,,0.00,Wunderground v.1.15,2013-05-06 22:40:00,
2013-05-06 18:46:00,67.6,52.3,30.11,ESE,121,3.0,4.0,58,0.00,,,0.00,Wunderground v.1.15,2013-05-06 22:46:00,
2013-05-06 18:52:00,66.8,52.0,30.11,SW,222,2.0,3.0,59,0.00,,,0.00,Wunderground v.1.15,2013-05-06 22:52:00,
2013-05-06 18:57:00,66.4,51.6,30.11,South,180,2.0,3.0,59,0.00,,,0.00,Wunderground v.1.15,2013-05-06 22:57:00,
2013-05-06 19:02:00,66.1,51.8,30.12,SSE,167,3.0,6.0,60,0.00,,,0.00,Wunderground v.1.15,2013-05-06 23:02:00,
2013-05-06 19:08:00,65.7,51.9,30.12,ESE,119,3.0,6.0,61,0.00,,,0.00,Wunderground v.1.15,2013-05-06 23:08:00,
2013-05-06 19:15:00,65.4,52.0,30.12,SSE,167,2.0,5.0,62,0.00,,,0.00,Wunderground v.1.15,2013-05-06 23:15:00,
2013-05-06 19:20:00,65.0,51.7,30.12,SSW,198,3.0,5.0,62,0.00,,,0.00,Wunderground v.1.15,2013-05-06 23:20:00,
2013-05-06 19:26:00,64.7,51.4,30.12,SSE,164,3.0,5.0,62,0.00,,,0.00,Wunderground v.1.15,2013-05-06 23:26:00,
2013-05-06 19:32:00,64.2,51.8,30.12,ESE,112,2.0,3.0,64,0.00,,,0.00,Wunderground v.1.15,2013-05-06 23:32:00,
2013-05-06 19:38:00,63.7,51.3,30.12,SSE,161,2.0,4.0,64,0.00,,,0.00,Wunderground v.1.15,2013-05-06 23:38:00,
2013-05-06 19:45:00,63.2,51.2,30.12,SE,146,3.0,8.0,65,0.00,,,0.00,Wunderground v.1.15,2013-05-06 23:45:00,
2013-05-06 19:50:00,62.8,51.3,30.12,SE,141,2.0,3.0,66,0.00,,,0.00,Wunderground v.1.15,2013-05-06 23:50:00,
2013-05-06 19:56:00,62.3,51.2,30.13,South,175,2.0,5.0,67,0.00,,,0.00,Wunderground v.1.15,2013-05-06 23:56:00,
2013-05-06 20:01:00,61.8,50.7,30.13,SSE,165,2.0,2.0,67,0.00,,,0.00,Wunderground v.1.15,2013-05-07 00:01:00,
2013-05-06 20:07:00,61.3,50.6,30.13,ESE,119,2.0,2.0,68,0.00,,,0.00,Wunderground v.1.15,2013-05-07 00:07:00,
2013-05-06 20:12:00,60.9,50.7,30.13,SSE,164,1.0,5.0,69,0.00,,,0.00,Wunderground v.1.15,2013-05-07 00:12:00,
2013-05-06 20:17:00,60.4,50.6,30.13,ESE,110,2.0,6.0,70,0.00,,,0.00,Wunderground v.1.15,2013-05-07 00:17:00,
2013-05-06 20:23:00,60.0,50.2,30.14,SE,145,2.0,2.0,70,0.00,,,0.00,Wunderground v.1.15,2013-05-07 00:23:00,
2013-05-06 20:30:00,59.5,50.1,30.14,SE,137,2.0,2.0,71,0.00,,,0.00,Wunderground v.1.15,2013-05-07 00:30:00,
2013-05-06 20:36:00,59.0,49.6,30.14,SE,146,2.0,3.0,71,0.00,,,0.00,Wunderground v.1.15,2013-05-07 00:36:00,
2013-05-06 20:42:00,59.0,50.0,30.15,South,190,3.0,7.0,72,0.00,,,0.00,Wunderground v.1.15,2013-05-07 00:42:00,
2013-05-06 20:47:00,58.7,49.7,30.15,SW,220,3.0,7.0,72,0.00,,,0.00,Wunderground v.1.15,2013-05-07 00:47:00,
2013-05-06 20:53:00,58.4,49.4,30.15,SSW,200,2.0,6.0,72,0.00,,,0.00,Wunderground v.1.15,2013-05-07 00:53:00,
2013-05-06 21:00:00,58.0,49.4,30.16,South,172,2.0,7.0,73,0.00,,,0.00,Wunderground v.1.15,2013-05-07 01:00:00,
2013-05-06 21:05:00,57.8,49.2,30.16,SSW,192,2.0,7.0,73,0.00,,,0.00,Wunderground v.1.15,2013-05-07 01:05:00,
2013-05-06 21:11:00,57.6,49.4,30.16,SW,222,2.0,3.0,74,0.00,,,0.00,Wunderground v.1.15,2013-05-07 01:11:00,
2013-05-06 21:17:00,57.2,49.0,30.16,South,178,2.0,3.0,74,0.00,,,0.00,Wunderground v.1.15,2013-05-07 01:17:00,
2013-05-06 21:23:00,57.0,49.2,30.16,SSW,196,2.0,2.0,75,0.00,,,0.00,Wunderground v.1.15,2013-05-07 01:23:00,
2013-05-06 21:30:00,56.7,48.9,30.16,South,186,2.0,2.0,75,0.00,,,0.00,Wunderground v.1.15,2013-05-07 01:30:00,
2013-05-06 21:36:00,56.4,48.9,30.16,South,180,2.0,2.0,76,0.00,,,0.00,Wunderground v.1.15,2013-05-07 01:36:00,
2013-05-06 21:42:00,56.2,49.1,30.16,SSW,198,2.0,4.0,77,0.00,,,0.00,Wunderground v.1.15,2013-05-07 01:42:00,
2013-05-06 21:48:00,56.0,48.9,30.16,SSE,166,2.0,4.0,77,0.00,,,0.00,Wunderground v.1.15,2013-05-07 01:48:00,
2013-05-06 21:55:00,55.7,48.9,30.16,South,178,2.0,3.0,78,0.00,,,0.00,Wunderground v.1.15,2013-05-07 01:55:00,
2013-05-06 22:00:00,55.5,48.8,30.16,SSE,161,2.0,2.0,78,0.00,,,0.00,Wunderground v.1.15,2013-05-07 02:00:00,
2013-05-06 22:05:00,55.3,48.9,30.16,SSW,192,2.0,4.0,79,0.00,,,0.00,Wunderground v.1.15,2013-05-07 02:05:00,
2013-05-06 22:11:00,55.1,48.7,30.16,South,175,2.0,3.0,79,0.00,,,0.00,Wunderground v.1.15,2013-05-07 02:11:00,
2013-05-06 22:16:00,55.0,48.6,30.16,South,180,1.0,3.0,79,0.00,,,0.00,Wunderground v.1.15,2013-05-07 02:16:00,
2013-05-06 22:22:00,54.8,48.7,30.16,South,180,1.0,1.0,80,0.00,,,0.00,Wunderground v.1.15,2013-05-07 02:22:00,
2013-05-06 22:28:00,54.6,48.6,30.16,SW,219,1.0,2.0,80,0.00,,,0.00,Wunderground v.1.15,2013-05-07 02:28:00,
2013-05-06 22:33:00,54.4,48.7,30.16,South,184,1.0,2.0,81,0.00,,,0.00,Wunderground v.1.15,2013-05-07 02:33:00,
2013-05-06 22:40:00,54.2,48.5,30.16,SSW,201,1.0,3.0,81,0.00,,,0.00,Wunderground v.1.15,2013-05-07 02:40:00,
2013-05-06 22:45:00,54.1,48.4,30.16,SSW,200,1.0,3.0,81,0.00,,,0.00,Wunderground v.1.15,2013-05-07 02:45:00,
2013-05-06 22:50:00,53.9,48.2,30.16,SSW,200,1.0,1.0,81,0.00,,,0.00,Wunderground v.1.15,2013-05-07 02:50:00,
2013-05-06 22:56:00,53.7,48.3,30.16,SSW,200,1.0,2.0,82,0.00,,,0.00,Wunderground v.1.15,2013-05-07 02:56:00,
2013-05-06 23:01:00,53.6,48.2,30.16,South,178,1.0,1.0,82,0.00,,,0.00,Wunderground v.1.15,2013-05-07 03:01:00,
2013-05-06 23:06:00,53.5,48.1,30.16,South,178,1.0,2.0,82,0.00,,,0.00,Wunderground v.1.15,2013-05-07 03:06:00,
2013-05-06 23:12:00,53.2,48.2,30.16,South,178,1.0,1.0,83,0.00,,,0.00,Wunderground v.1.15,2013-05-07 03:12:00,
2013-05-06 23:17:00,52.9,47.9,30.16,South,178,0.0,1.0,83,0.00,,,0.00,Wunderground v.1.15,2013-05-07 03:17:00,
2013-05-06 23:23:00,52.6,47.6,30.16,South,178,0.0,0.0,83,0.00,,,0.00,Wunderground v.1.15,2013-05-07 03:23:00,
2013-05-06 23:28:00,52.3,47.6,30.16,South,178,0.0,1.0,84,0.00,,,0.00,Wunderground v.1.15,2013-05-07 03:28:00,
2013-05-06 23:33:00,52.0,47.6,30.16,South,178,0.0,1.0,85,0.00,,,0.00,Wunderground v.1.15,2013-05-07 03:33:00,
2013-05-06 23:38:00,51.6,47.2,30.16,South,176,0.0,1.0,85,0.00,,,0.00,Wunderground v.1.15,2013-05-07 03:38:00,
2013-05-06 23:45:00,51.3,46.9,30.16,South,178,0.0,2.0,85,0.00,,,0.00,Wunderground v.1.15,2013-05-07 03:45:00,
2013-05-06 23:51:00,51.0,47.0,30.15,South,178,0.0,2.0,86,0.00,,,0.00,Wunderground v.1.15,2013-05-07 03:51:00,
2013-05-06 23:56:00,50.7,46.7,30.16,South,178,0.0,2.0,86,0.00,,,0.00,Wunderground v.1.15,2013-05-07 03:56:00,